Time;durP1;ratioP1;P1;durP2;ratioP2;P2;SDS_P1;SDS_P2;PMS_P1;PMS_P2;Temp;Humidity;BMP_temperature;BMP_pressure;BME280_temperature;BME280_humidity;BME280_pressure;Samples;Min_cycle;Max_cycle;Signal;HPM_P1;HPM_P2
2022/09/03 00:00:20;;;;;;;;;8.00;6.75;;;;;20.03;84.32;98955.06;5015854;28;45477;-61
2022/09/03 00:02:58;;;;;;;;;9.00;8.75;;;;;20.06;84.10;98957.50;5014772;28;46097;-61
2022/09/03 00:05:54;;;;;;;;;10.00;9.50;;;;;20.08;83.26;98953.72;5005216;28;45360;-61
2022/09/03 00:08:19;;;;;;;;;4.25;4.25;;;;;20.08;83.04;98950.19;5016126;28;45426;-61
2022/09/03 00:11:02;;;;;;;;;6.50;4.50;;;;;20.08;83.19;98950.19;5015929;28;45339;-61
2022/09/03 00:13:33;;;;;;;;;5.25;4.75;;;;;20.08;83.47;98959.09;5016174;28;45446;-61
2022/09/03 00:16:10;;;;;;;;;5.50;5.50;;;;;20.07;83.50;98949.34;5015978;28;45446;-61
2022/09/03 00:18:42;;;;;;;;;5.75;5.00;;;;;20.05;82.78;98956.66;5015760;28;45473;-61
2022/09/03 00:21:14;;;;;;;;;5.50;5.25;;;;;20.03;82.94;98955.91;5015728;28;45359;-61
2022/09/03 00:23:43;;;;;;;;;6.75;6.75;;;;;20.04;83.12;98959.44;5015758;28;45531;-60
2022/09/03 00:26:11;;;;;;;;;5.25;5.00;;;;;20.04;83.06;98948.75;5015352;28;45411;-59
2022/09/03 00:28:52;;;;;;;;;6.50;6.00;;;;;20.04;82.96;98951.41;5016060;28;45396;-59
2022/09/03 00:31:28;;;;;;;;;7.75;7.75;;;;;20.02;83.37;98948.84;5015739;28;45362;-60
2022/09/03 00:34:07;;;;;;;;;6.00;6.00;;;;;20.03;83.63;98947.03;5015406;28;45657;-59
2022/09/03 00:36:42;;;;;;;;;4.75;4.00;;;;;20.01;83.50;98957.88;5015686;28;45459;-59
2022/09/03 00:39:23;;;;;;;;;8.00;5.75;;;;;20.00;83.41;98968.69;5015541;28;45355;-59
2022/09/03 00:42:25;;;;;;;;;7.00;6.00;;;;;19.98;83.51;98952.75;5015064;28;45312;-59
2022/09/03 00:45:05;;;;;;;;;9.00;8.00;;;;;19.95;83.87;98944.97;5015145;28;46561;-59
2022/09/03 00:47:33;;;;;;;;;10.25;8.00;;;;;19.93;83.64;98949.63;5004704;28;45488;-59
2022/09/03 00:50:17;;;;;;;;;6.00;6.00;;;;;19.91;83.98;98959.59;5015523;28;45497;-59
2022/09/03 00:52:51;;;;;;;;;6.00;6.00;;;;;19.89;84.03;98958.88;5014995;28;45577;-59
2022/09/03 00:55:46;;;;;;;;;9.00;7.75;;;;;19.88;83.94;98965.19;5015004;28;46250;-59
2022/09/03 00:58:58;;;;;;;;;7.00;6.75;;;;;19.85;84.19;98963.59;5015220;28;45396;-59
2022/09/03 01:01:35;;;;;;;;;6.25;6.25;;;;;19.89;84.04;98977.59;4982055;28;45482;-58
2022/09/03 01:04:18;;;;;;;;;8.25;6.00;;;;;19.90;84.14;98955.22;5015125;28;45458;-59
2022/09/03 01:07:04;;;;;;;;;6.50;4.00;;;;;19.91;84.52;98950.72;5002289;28;47537;-58
2022/09/03 01:09:58;;;;;;;;;5.25;4.75;;;;;19.91;83.86;98953.41;5014683;28;45470;-58
2022/09/03 01:12:53;;;;;;;;;7.00;7.00;;;;;19.91;84.07;98967.63;5014560;28;45375;-63
2022/09/03 01:15:26;;;;;;;;;5.25;4.50;;;;;19.89;84.00;98966.03;4988296;28;45522;-65
2022/09/03 01:18:19;;;;;;;;;6.00;6.00;;;;;19.89;84.30;98969.56;5014770;28;45771;-59
2022/09/03 01:21:08;;;;;;;;;7.50;5.50;;;;;19.89;84.78;98974.06;5014893;28;45438;-59
2022/09/03 01:23:53;;;;;;;;;6.25;6.00;;;;;19.88;84.70;98975.88;5014947;28;45455;-59
2022/09/03 01:26:39;;;;;;;;;5.75;5.00;;;;;19.89;84.56;98966.91;5014426;28;45449;-59
2022/09/03 01:29:09;;;;;;;;;5.00;5.00;;;;;19.90;84.58;98967.75;5014653;28;46711;-60
2022/09/03 01:32:05;;;;;;;;;7.00;6.50;;;;;19.88;84.57;98967.00;5014719;28;45285;-60
2022/09/03 01:34:33;;;;;;;;;6.00;6.00;;;;;19.88;84.73;98969.69;5014308;28;45339;-59
2022/09/03 01:36:59;;;;;;;;;6.50;5.25;;;;;19.86;84.65;98959.97;5014825;28;45501;-60
2022/09/03 01:39:50;;;;;;;;;7.00;7.00;;;;;19.85;84.78;98955.59;5014739;28;46027;-60
2022/09/03 01:42:26;;;;;;;;;7.00;6.00;;;;;19.84;84.92;98959.22;4998364;28;45266;-60
2022/09/03 01:45:07;;;;;;;;;5.75;5.00;;;;;19.86;85.07;98959.97;5014722;28;45387;-60
2022/09/03 01:47:53;;;;;;;;;8.25;8.25;;;;;19.87;84.61;98960.81;5014882;28;45492;-59
2022/09/03 01:50:44;;;;;;;;;8.50;7.25;;;;;19.88;84.97;98967.00;5014209;28;46228;-60
2022/09/03 01:53:22;;;;;;;;;7.75;7.75;;;;;19.88;85.16;98967.88;5014286;28;45526;-60
2022/09/03 01:56:08;;;;;;;;;7.00;7.00;;;;;19.86;84.88;98962.63;5014315;28;45417;-59
2022/09/03 01:58:45;;;;;;;;;8.00;8.00;;;;;19.86;84.40;98951.09;5013926;28;45458;-59
2022/09/03 02:01:24;;;;;;;;;8.00;7.75;;;;;19.84;84.99;98947.69;5014173;28;45548;-59
2022/09/03 02:03:50;;;;;;;;;7.00;7.00;;;;;19.81;85.09;98951.44;5014165;28;45453;-60
2022/09/03 02:06:18;;;;;;;;;6.00;6.00;;;;;19.83;84.55;98956.66;5014306;28;45422;-59
2022/09/03 02:08:43;;;;;;;;;7.75;7.00;;;;;19.80;84.75;98955.09;5014300;28;45447;-58
2022/09/03 02:11:09;;;;;;;;;10.00;8.00;;;;;19.80;84.75;98955.09;5013441;28;45620;-58
2022/09/03 02:13:41;;;;;;;;;5.25;5.25;;;;;19.81;84.57;98950.59;5014469;28;45446;-59
2022/09/03 02:16:14;;;;;;;;;6.25;4.25;;;;;19.82;84.10;98941.59;5014235;28;45406;-59
2022/09/03 02:18:50;;;;;;;;;8.00;6.00;;;;;19.81;84.98;98948.78;5014042;28;45547;-59
2022/09/03 02:21:19;;;;;;;;;6.50;6.25;;;;;19.80;84.52;98946.22;5014710;28;46323;-59
2022/09/03 02:23:44;;;;;;;;;7.20;5.80;;;;;19.80;84.47;98936.38;5017610;28;45418;-59
2022/09/03 02:26:12;;;;;;;;;7.25;6.00;;;;;19.80;84.18;98939.03;5017416;28;45383;-59
2022/09/03 02:28:37;;;;;;;;;9.00;7.25;;;;;19.80;84.92;98933.69;5017190;28;45529;-59
2022/09/03 02:31:03;;;;;;;;;6.50;6.50;;;;;19.83;85.17;98932.59;5017556;28;46025;-58
2022/09/03 02:33:35;;;;;;;;;7.50;6.50;;;;;19.83;84.39;98936.13;5017540;28;45439;-59
2022/09/03 02:36:04;;;;;;;;;7.50;6.50;;;;;19.85;84.17;98936.84;5017453;28;45432;-59
2022/09/03 02:38:29;;;;;;;;;9.75;6.75;;;;;19.85;84.23;98933.31;5017173;28;45548;-59
2022/09/03 02:40:55;;;;;;;;;8.25;6.75;;;;;19.86;84.88;98935.03;4999089;28;45423;-58
2022/09/03 02:43:33;;;;;;;;;8.00;7.00;;;;;19.89;84.75;98924.09;5016749;28;45496;-58
2022/09/03 02:46:02;;;;;;;;;9.25;7.50;;;;;19.91;84.56;98923.97;5017424;28;45512;-59
2022/09/03 02:48:27;;;;;;;;;6.75;6.75;;;;;19.91;84.48;98927.50;5016700;28;45634;-58
2022/09/03 02:50:53;;;;;;;;;8.00;7.00;;;;;19.92;84.55;98925.66;5016892;28;46141;-58
2022/09/03 02:53:19;;;;;;;;;7.00;6.25;;;;;19.89;84.17;98921.41;5017004;28;45209;-58
2022/09/03 02:55:45;;;;;;;;;10.50;7.75;;;;;19.86;84.38;98919.81;5016973;28;45412;-58
2022/09/03 02:58:10;;;;;;;;;6.00;6.00;;;;;19.85;84.76;98918.13;5017253;28;45441;-58
2022/09/03 03:00:36;;;;;;;;;10.75;7.25;;;;;19.86;85.18;98916.31;5015752;28;45494;-58
2022/09/03 03:03:05;;;;;;;;;7.50;6.75;;;;;19.86;84.54;98910.94;5016673;28;45451;-58
2022/09/03 03:05:46;;;;;;;;;8.25;7.00;;;;;19.84;84.81;98908.41;5017133;28;45363;-58
2022/09/03 03:08:13;;;;;;;;;8.50;8.50;;;;;19.84;84.51;98910.22;5016557;28;45359;-59
2022/09/03 03:10:41;;;;;;;;;6.50;6.50;;;;;19.82;84.84;98907.66;4998626;28;45475;-59
2022/09/03 03:13:06;;;;;;;;;12.50;9.50;;;;;19.82;84.74;98912.16;5016953;28;45307;-58
2022/09/03 03:15:32;;;;;;;;;9.25;9.00;;;;;19.80;85.00;98906.94;5017168;28;45417;-62
2022/09/03 03:17:57;;;;;;;;;8.00;8.00;;;;;19.78;85.09;98903.53;5016501;28;45327;-60
2022/09/03 03:20:23;;;;;;;;;9.25;8.50;;;;;19.79;85.67;98913.25;5016582;28;46600;-56
2022/09/03 03:22:49;;;;;;;;;6.50;6.50;;;;;19.80;86.07;98906.09;5016549;28;45384;-56
2022/09/03 03:25:15;;;;;;;;;9.00;7.00;;;;;19.79;86.18;98907.91;5016329;28;45568;-58
2022/09/03 03:27:41;;;;;;;;;6.00;6.00;;;;;19.76;85.67;98902.84;5016298;28;45570;-58
2022/09/03 03:30:09;;;;;;;;;8.00;8.00;;;;;19.75;85.57;98898.47;5016487;28;46067;-58
2022/09/03 03:32:35;;;;;;;;;9.75;8.00;;;;;19.73;85.45;98903.06;5015953;28;45403;-59
2022/09/03 03:35:01;;;;;;;;;8.25;8.00;;;;;19.75;85.70;98900.28;5016567;28;45379;-59
2022/09/03 03:37:26;;;;;;;;;9.00;7.75;;;;;19.75;85.81;98911.84;5016128;28;45358;-58
2022/09/03 03:39:51;;;;;;;;;6.75;6.25;;;;;19.73;85.68;98910.25;4998305;28;47196;-59
2022/09/03 03:42:17;;;;;;;;;9.00;6.50;;;;;19.72;86.34;98912.06;5015831;28;45444;-73
2022/09/03 03:44:42;;;;;;;;;469.33;394.33;;;;;19.75;86.58;98908.31;5016360;28;45347;-62
2022/09/03 03:47:08;;;;;;;;;4.50;4.25;;;;;19.80;85.97;98914.13;5013374;28;46129;-60
2022/09/03 03:49:33;;;;;;;;;5.00;5.00;;;;;19.83;85.62;98927.25;5014840;28;47271;-59
2022/09/03 03:51:59;;;;;;;;;8.00;8.00;;;;;19.84;85.53;98934.28;4998768;28;45324;-59
2022/09/03 03:54:24;;;;;;;;;9.00;6.00;;;;;19.84;85.95;98929.81;5016097;28;45380;-60
2022/09/03 03:56:50;;;;;;;;;8.25;8.00;;;;;19.83;85.38;98922.75;5015494;28;45564;-60
2022/09/03 03:59:15;;;;;;;;;7.00;7.00;;;;;19.81;85.19;98921.16;5015593;28;45399;-61
2022/09/03 04:01:40;;;;;;;;;7.25;7.25;;;;;19.81;85.30;98922.00;5015486;28;45413;-61
2022/09/03 04:04:06;;;;;;;;;6.25;6.00;;;;;19.81;85.54;98937.22;5015640;28;45425;-59
2022/09/03 04:06:31;;;;;;;;;7.00;7.00;;;;;19.79;85.50;98939.16;5015932;28;45494;-60
2022/09/03 04:08:57;;;;;;;;;7.00;6.00;;;;;19.77;85.32;98939.28;5015003;28;45499;-59
2022/09/03 04:11:24;;;;;;;;;6.00;5.25;;;;;19.76;85.83;98931.41;5014794;28;45427;-58
2022/09/03 04:13:50;;;;;;;;;7.50;7.25;;;;;19.72;85.93;98935.28;5015435;28;45406;-58
2022/09/03 04:16:17;;;;;;;;;8.50;7.00;;;;;19.69;85.96;98933.72;5015450;28;45308;-58
2022/09/03 04:18:44;;;;;;;;;1.75;0.75;;;;;19.67;85.92;98932.97;4999705;28;46083;-58
2022/09/03 04:21:15;;;;;;;;;7.80;7.20;;;;;19.65;85.90;98937.59;5014836;28;45420;-60
2022/09/03 04:23:42;;;;;;;;;7.00;7.00;;;;;19.65;85.94;98940.28;5015346;28;45426;-59
2022/09/03 04:26:10;;;;;;;;;8.75;8.75;;;;;19.63;86.56;98944.03;4997414;28;45456;-59
2022/09/03 04:28:36;;;;;;;;;7.00;7.00;;;;;19.62;86.50;98950.38;5015093;28;45591;-58
2022/09/03 04:31:03;;;;;;;;;8.50;8.00;;;;;19.60;86.59;98944.31;5014566;28;45378;-59
2022/09/03 04:33:30;;;;;;;;;7.00;7.00;;;;;19.59;86.64;98943.47;5014955;28;45406;-59
2022/09/03 04:36:07;;;;;;;;;6.75;6.75;;;;;19.59;86.89;98938.13;5001485;28;45586;-59
2022/09/03 04:38:34;;;;;;;;;11.00;9.00;;;;;19.59;87.03;98948.81;5014857;28;45549;-59
2022/09/03 04:41:00;;;;;;;;;8.00;8.00;;;;;19.59;87.17;98942.63;5014349;28;45653;-59
2022/09/03 04:43:27;;;;;;;;;7.50;7.50;;;;;19.58;87.38;98933.75;5014796;28;45473;-59
2022/09/03 04:46:00;;;;;;;;;10.50;9.75;;;;;19.57;87.45;98932.03;5006328;28;45516;-59
2022/09/03 04:48:27;;;;;;;;;12.25;11.75;;;;;19.56;87.06;98924.13;4996975;28;45803;-58
2022/09/03 04:50:53;;;;;;;;;9.75;9.75;;;;;19.54;87.47;98929.59;5015074;28;45378;-59
2022/09/03 04:53:20;;;;;;;;;12.00;11.75;;;;;19.55;87.53;98922.44;5014796;28;45563;-58
2022/09/03 04:55:45;;;;;;;;;10.25;10.25;;;;;19.53;87.65;98919.88;5014821;28;45433;-59
2022/09/03 04:58:11;;;;;;;;;9.50;9.25;;;;;19.53;87.62;98909.19;5014799;28;47262;-58
2022/09/03 05:00:37;;;;;;;;;9.00;8.25;;;;;19.52;87.25;98910.16;5014917;28;45407;-58
2022/09/03 05:03:03;;;;;;;;;10.00;9.75;;;;;19.50;87.03;98920.97;5014151;28;45673;-58
2022/09/03 05:05:30;;;;;;;;;10.25;9.50;;;;;19.51;87.17;98927.16;5012710;28;45586;-61
2022/09/03 05:08:03;;;;;;;;;9.50;9.50;;;;;19.48;87.05;98932.72;5010673;28;45433;-65
2022/09/03 05:10:29;;;;;;;;;8.50;8.50;;;;;19.46;87.22;98918.63;5014515;28;45529;-59
2022/09/03 05:13:03;;;;;;;;;11.00;7.50;;;;;19.44;87.10;98917.88;5014898;28;45419;-59
2022/09/03 05:15:30;;;;;;;;;9.00;9.00;;;;;19.45;87.09;98899.03;5014642;28;45623;-59
2022/09/03 05:18:00;;;;;;;;;11.00;8.75;;;;;19.45;87.50;98892.84;5013867;28;45481;-59
2022/09/03 05:20:28;;;;;;;;;7.50;7.00;;;;;19.45;87.18;98891.03;5014452;28;45418;-59
2022/09/03 05:22:54;;;;;;;;;8.00;7.25;;;;;19.46;87.21;98894.56;5014023;28;45390;-59
2022/09/03 05:25:20;;;;;;;;;9.25;7.75;;;;;19.49;86.34;98905.88;5013699;28;45548;-60
2022/09/03 05:27:46;;;;;;;;;9.50;8.75;;;;;19.51;86.92;98914.66;5013257;28;45500;-58
2022/09/03 05:30:12;;;;;;;;;7.75;7.75;;;;;19.53;86.86;98909.19;5013951;28;45328;-58
2022/09/03 05:32:38;;;;;;;;;8.25;6.25;;;;;19.55;86.50;98920.59;5013075;28;45422;-59
2022/09/03 05:35:03;;;;;;;;;7.25;7.00;;;;;19.58;86.12;98914.16;5011991;28;45622;-59
2022/09/03 05:37:29;;;;;;;;;5.00;4.00;;;;;19.57;86.24;98918.66;5011763;28;45687;-59
2022/09/03 05:39:54;;;;;;;;;7.75;6.50;;;;;19.59;86.07;98923.88;5014073;28;45466;-58
2022/09/03 05:42:20;;;;;;;;;7.00;7.00;;;;;19.60;85.88;98925.59;5013080;28;45456;-59
2022/09/03 05:44:48;;;;;;;;;7.00;6.00;;;;;19.61;85.54;98935.28;5013973;28;45340;-59
2022/09/03 05:47:14;;;;;;;;;7.00;7.00;;;;;19.62;85.97;98937.84;5013928;28;46723;-59
2022/09/03 05:49:40;;;;;;;;;10.50;9.00;;;;;19.63;86.31;98941.38;5013936;28;45371;-59
2022/09/03 05:52:05;;;;;;;;;7.75;7.75;;;;;19.62;86.43;98942.34;5014026;28;45588;-59
2022/09/03 05:54:31;;;;;;;;;8.00;7.25;;;;;19.61;85.84;98930.78;5013563;28;45466;-59
2022/09/03 05:56:56;;;;;;;;;7.00;7.00;;;;;19.62;86.08;98927.16;5009729;28;45483;-58
2022/09/03 05:59:21;;;;;;;;;8.25;7.00;;;;;19.62;86.25;98929.81;5016987;28;45429;-59
2022/09/03 06:01:48;;;;;;;;;9.00;7.25;;;;;19.63;86.09;98939.53;5017142;28;45383;-58
2022/09/03 06:04:15;;;;;;;;;9.75;8.00;;;;;19.64;85.97;98925.19;5017097;28;45419;-59
2022/09/03 06:06:45;;;;;;;;;6.50;6.00;;;;;19.68;86.25;98924.00;5016820;28;46142;-67
2022/09/03 06:09:15;;;;;;;;;10.25;10.25;;;;;19.71;85.92;98920.22;5016972;28;45403;-65
2022/09/03 06:11:41;;;;;;;;;9.75;9.00;;;;;19.71;85.32;98917.53;5016833;28;45394;-70
2022/09/03 06:14:08;;;;;;;;;8.75;8.75;;;;;19.72;85.52;98925.44;5016710;28;45506;-62
2022/09/03 06:16:42;;;;;;;;;9.00;6.75;;;;;19.71;85.21;98918.41;5016649;28;46213;-62
2022/09/03 06:19:09;;;;;;;;;6.80;6.60;;;;;19.71;85.61;98920.22;5016925;28;45326;-62
2022/09/03 06:21:41;;;;;;;;;7.00;7.00;;;;;19.72;85.57;98925.44;5016761;28;45399;-61
2022/09/03 06:24:08;;;;;;;;;8.75;7.50;;;;;19.74;85.34;98928.84;5016786;28;45393;-62
2022/09/03 06:26:33;;;;;;;;;7.50;7.50;;;;;19.76;85.56;98923.38;5016124;28;46313;-61
2022/09/03 06:28:59;;;;;;;;;7.25;7.25;;;;;19.80;85.99;98923.00;5012516;28;45308;-61
2022/09/03 06:31:24;;;;;;;;;9.00;8.00;;;;;19.83;85.35;98927.25;5017137;28;46041;-62
2022/09/03 06:33:51;;;;;;;;;7.00;7.00;;;;;19.83;85.32;98936.13;5016635;28;45431;-63
2022/09/03 06:36:18;;;;;;;;;7.75;7.75;;;;;19.85;85.38;98939.53;5015646;28;45609;-62
2022/09/03 06:38:45;;;;;;;;;12.50;12.50;;;;;19.90;85.79;98941.00;5014391;28;45501;-63
2022/09/03 06:41:19;;;;;;;;;9.75;9.00;;;;;19.97;85.47;98936.81;5005583;28;45398;-65
2022/09/03 06:43:46;;;;;;;;;10.25;9.00;;;;;20.05;85.47;98937.91;5011347;28;45524;-63
2022/09/03 06:46:14;;;;;;;;;9.25;9.25;;;;;20.09;84.83;98943.88;5015728;28;45466;-63
2022/09/03 06:48:40;;;;;;;;;8.00;7.25;;;;;20.12;84.50;98941.78;4998168;28;45469;-62
2022/09/03 06:51:10;;;;;;;;;7.75;7.00;;;;;20.15;84.35;98930.81;5015151;28;45449;-62
2022/09/03 06:53:41;;;;;;;;;8.50;6.25;;;;;20.19;83.74;98928.75;5015571;28;45522;-62
2022/09/03 06:56:24;;;;;;;;;11.25;8.50;;;;;20.23;83.29;98929.34;5015288;28;45477;-62
2022/09/03 06:58:50;;;;;;;;;4.80;4.80;;;;;20.27;83.47;98931.66;5016792;28;45414;-62
2022/09/03 07:01:21;;;;;;;;;6.75;6.75;;;;;20.31;83.40;98921.50;5017017;28;45461;-62
2022/09/03 07:03:51;;;;;;;;;5.50;4.25;;;;;20.35;83.22;98918.47;5015822;28;45370;-65
2022/09/03 07:06:18;;;;;;;;;11.25;8.75;;;;;20.39;82.55;98908.38;5016461;28;45498;-63
2022/09/03 07:08:45;;;;;;;;;8.75;8.00;;;;;20.41;82.46;98898.41;5015554;28;45481;-63
2022/09/03 07:11:19;;;;;;;;;9.25;8.25;;;;;20.43;81.94;98894.63;5015541;28;45523;-63
2022/09/03 07:13:46;;;;;;;;;9.00;9.00;;;;;20.44;81.94;98890.94;5016268;28;45528;-60
2022/09/03 07:16:15;;;;;;;;;10.00;8.75;;;;;20.48;81.71;98895.06;5015904;28;45522;-60
2022/09/03 07:18:42;;;;;;;;;5.50;5.50;;;;;20.51;81.63;98902.00;5015886;28;45317;-64
2022/09/03 07:21:29;;;;;;;;;5.25;5.25;;;;;20.52;81.44;98891.16;5016236;28;45423;-62
2022/09/03 07:23:55;;;;;;;;;6.00;6.00;;;;;20.58;80.72;98896.97;5016058;28;45382;-62
2022/09/03 07:26:27;;;;;;;;;5.50;5.50;;;;;20.61;80.76;98905.56;5015306;28;46449;-63
2022/09/03 07:28:53;;;;;;;;;6.00;5.20;;;;;20.71;80.83;98919.06;5016077;28;45502;-61
2022/09/03 07:31:21;;;;;;;;;5.50;5.50;;;;;20.77;80.16;98906.00;5016133;28;45453;-61
2022/09/03 07:33:47;;;;;;;;;8.00;7.50;;;;;20.85;79.87;98916.03;5015671;28;45418;-65
2022/09/03 07:36:16;;;;;;;;;10.25;8.75;;;;;20.93;79.55;98923.44;5015741;28;45626;-62
2022/09/03 07:38:43;;;;;;;;;9.40;8.60;;;;;20.98;79.62;98921.19;5013991;28;45530;-60
2022/09/03 07:41:10;;;;;;;;;9.75;8.00;;;;;21.04;79.34;98934.94;5015457;28;45428;-69
2022/09/03 07:43:48;;;;;;;;;8.50;8.00;;;;;21.10;79.23;98934.41;5015366;28;45342;-64
2022/09/03 07:46:15;;;;;;;;;8.25;6.75;;;;;21.16;78.27;98935.69;5015307;28;45641;-61
2022/09/03 07:48:42;;;;;;;;;10.60;9.00;;;;;21.20;78.30;98943.38;5014705;28;45473;-64
2022/09/03 07:51:08;;;;;;;;;9.00;8.25;;;;;21.25;78.37;98945.69;5015524;28;45355;-60
2022/09/03 07:53:35;;;;;;;;;8.75;6.25;;;;;21.28;78.00;98952.63;5014818;28;45670;-61
2022/09/03 07:56:06;;;;;;;;;6.75;6.75;;;;;21.32;77.85;98948.66;5015099;28;45526;-59
2022/09/03 07:58:32;;;;;;;;;8.00;7.00;;;;;21.36;77.13;98966.19;5015171;28;45457;-60
2022/09/03 08:01:02;;;;;;;;;7.25;6.25;;;;;21.36;77.06;98974.22;4997086;28;45513;-63
2022/09/03 08:03:28;;;;;;;;;7.50;7.50;;;;;21.39;77.37;98960.56;5015210;28;45351;-58
2022/09/03 08:05:54;;;;;;;;;12.50;8.25;;;;;21.37;77.51;98968.75;5013293;28;46530;-58
2022/09/03 08:08:19;;;;;;;;;7.60;7.00;;;;;21.41;77.36;98972.00;5014938;28;45379;-61
2022/09/03 08:10:45;;;;;;;;;9.25;8.25;;;;;21.51;77.03;98971.06;5014865;28;45437;-61
2022/09/03 08:13:10;;;;;;;;;9.75;9.75;;;;;21.53;76.74;98966.41;5015115;28;45260;-61
2022/09/03 08:15:37;;;;;;;;;9.50;8.00;;;;;21.54;77.33;98969.94;5015038;28;45533;-61
2022/09/03 08:18:02;;;;;;;;;8.75;8.00;;;;;21.57;76.79;98975.91;5014877;28;45400;-63
2022/09/03 08:20:28;;;;;;;;;8.00;6.00;;;;;21.58;76.44;98982.97;5014119;28;45482;-63
2022/09/03 08:23:01;;;;;;;;;6.50;6.00;;;;;21.58;76.26;98977.59;5015014;28;45479;-66
2022/09/03 08:25:26;;;;;;;;;8.25;7.75;;;;;21.58;76.57;98982.13;5014885;28;45522;-59
2022/09/03 08:27:51;;;;;;;;;9.50;9.00;;;;;21.61;75.98;98978.31;4997003;28;45591;-66
2022/09/03 08:30:17;;;;;;;;;4.00;4.00;;;;;21.65;75.57;98983.25;5015193;28;45414;-59
2022/09/03 08:32:43;;;;;;;;;1874.00;1279.40;;;;;21.71;78.12;98988.09;5014368;28;45460;-68
2022/09/03 08:35:08;;;;;;;;;29.00;23.00;;;;;21.81;75.70;98996.19;5011705;28;46174;-64
2022/09/03 08:37:34;;;;;;;;;12.50;12.50;;;;;21.88;75.20;99002.72;5012626;28;45441;-64
2022/09/03 08:39:59;;;;;;;;;9.00;7.00;;;;;21.92;74.56;99004.16;5014224;28;45512;-63
2022/09/03 08:42:37;;;;;;;;;4.75;4.75;;;;;21.93;74.30;99000.50;5014428;28;45490;-64
2022/09/03 08:45:09;;;;;;;;;3.50;3.50;;;;;21.92;73.33;99012.22;4994962;28;46219;-64
2022/09/03 08:47:45;;;;;;;;;7.40;7.40;;;;;21.91;73.60;99008.69;5003917;28;45468;-64
2022/09/03 08:50:43;;;;;;;;;8.25;6.75;;;;;21.94;73.54;99015.63;5012932;28;45398;-64
2022/09/03 08:53:30;;;;;;;;;9.00;8.00;;;;;21.97;73.08;99015.31;5004097;28;45576;-64
2022/09/03 08:56:06;;;;;;;;;7.50;6.75;;;;;22.02;73.29;99018.47;5013596;28;46738;-64
2022/09/03 08:58:34;;;;;;;;;8.80;7.60;;;;;22.11;73.12;99014.16;5007253;28;45485;-64
2022/09/03 09:01:23;;;;;;;;;5.50;5.25;;;;;22.18;72.48;99020.66;5014347;28;45471;-65
2022/09/03 09:04:11;;;;;;;;;5.25;5.25;;;;;22.21;72.27;99018.53;5014385;28;45364;-65
2022/09/03 09:06:42;;;;;;;;;6.75;5.50;;;;;22.28;71.75;99013.50;4980009;28;45549;-64
2022/09/03 09:09:26;;;;;;;;;6.20;5.00;;;;;22.34;71.76;99014.75;5013717;28;45386;-64
2022/09/03 09:12:16;;;;;;;;;6.00;6.00;;;;;22.41;70.88;99021.28;5013948;28;45375;-64
2022/09/03 09:15:12;;;;;;;;;5.25;5.25;;;;;22.54;70.20;99020.03;5013833;28;45526;-65
2022/09/03 09:18:13;;;;;;;;;7.25;6.25;;;;;22.66;69.54;99015.34;5013404;28;45503;-63
2022/09/03 09:20:57;;;;;;;;;5.80;5.20;;;;;22.79;68.15;99018.66;4969599;28;45539;-64
2022/09/03 09:23:39;;;;;;;;;7.25;6.50;;;;;22.82;68.11;99012.16;5010511;28;45423;-65
2022/09/03 09:26:09;;;;;;;;;7.25;6.00;;;;;22.90;67.82;98998.84;5013359;28;45454;-66
2022/09/03 09:28:37;;;;;;;;;139.00;119.50;;;;;22.99;67.38;99000.69;5013328;28;45311;-60
2022/09/03 09:31:11;;;;;;;;;5.40;5.40;;;;;23.15;67.27;99002.78;5013025;28;45491;-64
2022/09/03 09:33:37;;;;;;;;;8.25;7.50;;;;;23.29;66.55;99003.19;5013931;28;45550;-63
2022/09/03 09:36:08;;;;;;;;;7.00;7.00;;;;;23.41;64.85;98995.81;5013438;28;45457;-63
2022/09/03 09:38:36;;;;;;;;;6.00;6.00;;;;;23.51;63.61;98995.75;5013314;28;45654;-62
2022/09/03 09:41:19;;;;;;;;;6.60;6.40;;;;;23.55;63.43;98995.38;5011977;28;45584;-63
2022/09/03 09:43:48;;;;;;;;;7.00;7.00;;;;;23.59;63.88;98987.84;5013327;28;45358;-62
2022/09/03 09:46:24;;;;;;;;;9.00;8.00;;;;;23.67;64.33;98982.56;4995451;28;45373;-62
2022/09/03 09:48:53;;;;;;;;;5.75;5.00;;;;;23.77;64.06;98982.53;5013223;28;46283;-63
2022/09/03 09:51:27;;;;;;;;;5.60;4.20;;;;;23.87;63.11;98980.66;4994201;28;45714;-63
2022/09/03 09:54:17;;;;;;;;;6.50;6.00;;;;;23.92;62.54;98981.06;5006681;28;45444;-62
2022/09/03 09:56:43;;;;;;;;;5.50;5.25;;;;;23.97;62.14;98984.13;4994541;28;45540;-63
2022/09/03 09:59:10;;;;;;;;;8.75;8.25;;;;;24.04;61.83;98982.53;5013163;28;45492;-62
2022/09/03 10:01:38;;;;;;;;;6.80;6.00;;;;;24.11;61.86;98977.41;5012422;28;45419;-63
2022/09/03 10:04:21;;;;;;;;;8.25;7.25;;;;;24.19;61.07;98970.25;5013023;28;45337;-62
2022/09/03 10:07:04;;;;;;;;;8.25;7.00;;;;;24.29;60.42;98967.56;4981872;28;45451;-63
2022/09/03 10:09:32;;;;;;;;;6.00;6.00;;;;;24.32;59.80;98965.38;5012759;28;45497;-63
2022/09/03 10:12:18;;;;;;;;;7.20;5.60;;;;;24.34;60.20;98958.00;5012048;28;45371;-62
2022/09/03 10:14:58;;;;;;;;;7.50;5.25;;;;;24.38;60.57;98969.31;5011346;28;45452;-63
2022/09/03 10:17:40;;;;;;;;;7.00;7.00;;;;;24.40;60.72;98964.63;5012326;28;45482;-63
2022/09/03 10:20:32;;;;;;;;;7.75;7.75;;;;;24.41;60.17;98960.94;5012375;28;45566;-63
2022/09/03 10:23:03;;;;;;;;;6.20;6.20;;;;;24.49;60.39;98963.69;5013427;28;45371;-62
2022/09/03 10:25:54;;;;;;;;;1043.25;549.50;;;;;24.61;60.09;98965.19;5012808;28;45396;-60
2022/09/03 10:28:28;;;;;;;;;15.25;13.50;;;;;24.79;60.00;98961.63;5012872;28;45520;-65
2022/09/03 10:31:10;;;;;;;;;8.00;6.75;;;;;24.98;59.32;98958.75;5012172;28;45365;-65
2022/09/03 10:33:48;;;;;;;;;7.80;7.80;;;;;25.15;58.43;98963.28;5012906;28;45423;-65
2022/09/03 10:36:19;;;;;;;;;6.50;6.00;;;;;25.29;58.14;98960.03;5010975;28;45476;-65
2022/09/03 10:38:50;;;;;;;;;6.00;6.00;;;;;25.36;57.50;98954.81;5012451;28;45550;-65
2022/09/03 10:41:37;;;;;;;;;6.60;6.60;;;;;25.45;56.85;98958.44;5011455;28;45379;-65
2022/09/03 10:44:20;;;;;;;;;5.60;5.60;;;;;25.58;56.29;98956.16;5003347;28;45568;-65
2022/09/03 10:47:11;;;;;;;;;5.25;5.25;;;;;25.68;55.82;98951.50;5016269;28;45485;-65
2022/09/03 10:49:55;;;;;;;;;7.50;5.50;;;;;25.77;55.53;98949.69;5014924;28;45352;-65
2022/09/03 10:52:33;;;;;;;;;8.50;6.00;;;;;25.83;55.46;98944.47;4991393;28;46632;-65
2022/09/03 10:55:18;;;;;;;;;7.20;7.20;;;;;25.89;55.36;98951.09;5014350;28;45508;-65
2022/09/03 10:57:57;;;;;;;;;8.00;7.25;;;;;25.96;55.20;98947.59;5012886;28;45560;-66
2022/09/03 11:00:23;;;;;;;;;6.25;5.50;;;;;26.07;54.51;98947.28;5012091;28;45453;-65
2022/09/03 11:03:07;;;;;;;;;8.00;7.00;;;;;26.13;54.36;98947.63;5015171;28;45461;-65
2022/09/03 11:06:10;;;;;;;;;9.20;6.00;;;;;26.15;53.90;98943.72;5006593;28;45493;-65
2022/09/03 11:09:17;;;;;;;;;8.75;8.00;;;;;26.18;53.97;98947.97;5006193;28;45453;-65
2022/09/03 11:11:50;;;;;;;;;11.00;8.75;;;;;26.17;53.67;98936.31;5013167;28;46307;-65
2022/09/03 11:14:39;;;;;;;;;7.00;6.50;;;;;26.14;53.71;98936.66;4994901;28;47648;-66
2022/09/03 11:17:12;;;;;;;;;5.80;5.80;;;;;26.15;53.95;98932.06;5012977;28;45461;-64
2022/09/03 11:19:57;;;;;;;;;7.00;7.00;;;;;26.13;54.07;98934.13;5019236;28;45560;-66
2022/09/03 11:22:24;;;;;;;;;17.33;16.33;;;;;26.10;53.73;98931.75;5020754;28;45394;-65
2022/09/03 11:24:57;;;;;;;;;8.00;6.50;;;;;26.05;53.99;98932.22;5017025;28;46155;-65
2022/09/03 11:28:02;;;;;;;;;6.00;6.00;;;;;25.97;54.30;98924.97;5024933;28;45465;-64
2022/09/03 11:30:36;;;;;;;;;6.75;5.75;;;;;25.88;53.96;98928.63;4976100;28;45463;-64
2022/09/03 11:33:08;;;;;;;;;7.00;6.75;;;;;25.82;54.31;98931.97;5020300;28;45437;-64
2022/09/03 11:35:33;;;;;;;;;8.25;8.00;;;;;25.77;54.44;98918.13;5012671;28;45513;-64
2022/09/03 11:38:20;;;;;;;;;8.50;7.50;;;;;25.76;54.36;98921.84;5014778;28;45470;-64
2022/09/03 11:41:03;;;;;;;;;8.50;8.25;;;;;25.75;54.16;98922.00;5014648;28;45417;-64
2022/09/03 11:43:33;;;;;;;;;6.75;6.75;;;;;25.76;54.55;98926.38;5015240;28;45510;-63
2022/09/03 11:46:20;;;;;;;;;8.00;6.50;;;;;25.83;54.43;98924.72;5005513;28;45435;-65
2022/09/03 11:48:47;;;;;;;;;11.00;9.80;;;;;25.84;54.60;98932.66;5005744;28;45815;-63
2022/09/03 11:51:19;;;;;;;;;7.50;7.50;;;;;25.90;54.69;98928.47;4992186;28;45391;-68
2022/09/03 11:54:05;;;;;;;;;8.50;7.00;;;;;25.90;53.37;98925.75;5007738;28;45610;-73
2022/09/03 11:56:33;;;;;;;;;11.00;9.25;;;;;25.93;53.42;98923.59;4996134;28;45426;-67